createdAt,value
2019-03-19T00:02:03.167Z,69.72
2019-03-19T00:04:33.685Z,69.51
2019-03-19T00:07:04.240Z,69.56
2019-03-19T00:09:34.744Z,69.53
2019-03-19T00:12:05.269Z,69.94
2019-03-19T00:14:35.782Z,70.09
2019-03-19T00:17:06.338Z,70.29
2019-03-19T00:19:37.758Z,70.60
2019-03-19T00:22:08.309Z,70.78
2019-03-19T00:24:38.825Z,70.99
2019-03-19T00:27:09.370Z,70.85
2019-03-19T00:29:39.879Z,71.25
2019-03-19T00:32:10.431Z,71.60
2019-03-19T00:34:42.168Z,71.83
2019-03-19T00:37:12.721Z,71.86
2019-03-19T00:39:43.242Z,71.97
2019-03-19T00:42:13.778Z,72.21
2019-03-19T00:44:44.292Z,72.37
2019-03-19T00:47:14.848Z,72.54
2019-03-19T00:49:45.349Z,72.73
2019-03-19T00:52:15.912Z,72.74
2019-03-19T00:54:46.415Z,72.70
2019-03-19T00:57:17.875Z,73.15
2019-03-19T00:59:48.395Z,73.10
2019-03-19T01:02:18.939Z,73.33
2019-03-19T01:04:49.510Z,73.43
2019-03-19T01:07:20.915Z,73.67
2019-03-19T01:09:51.435Z,73.66
2019-03-19T01:12:21.973Z,73.89
2019-03-19T01:14:53.407Z,73.79
2019-03-19T01:17:23.674Z,73.68
2019-03-19T01:19:54.153Z,73.69
2019-03-19T01:22:24.423Z,73.84
2019-03-19T01:24:55.839Z,73.97
2019-03-19T01:27:26.387Z,74.21
2019-03-19T01:29:56.899Z,74.27
2019-03-19T01:32:27.443Z,74.13
2019-03-19T01:34:58.874Z,74.01
2019-03-19T01:37:29.441Z,73.66
2019-03-19T01:39:59.939Z,73.50
2019-03-19T01:42:30.491Z,73.21
2019-03-19T01:45:03.614Z,73.17
2019-03-19T01:47:33.994Z,73.10
2019-03-19T01:50:07.965Z,73.52
2019-03-19T01:52:38.438Z,73.68
2019-03-19T01:55:15.978Z,73.79
2019-03-19T01:57:47.485Z,74.07
2019-03-19T02:00:19.344Z,74.34
2019-03-19T02:02:56.969Z,74.44
2019-03-19T02:05:27.345Z,74.57
2019-03-19T02:07:58.806Z,74.70
2019-03-19T02:10:30.258Z,74.85
2019-03-19T02:13:00.786Z,74.79
2019-03-19T02:15:32.237Z,74.64
2019-03-19T02:18:03.685Z,74.79
2019-03-19T02:20:35.144Z,74.87
2019-03-19T02:23:06.602Z,75.01
2019-03-19T02:25:37.118Z,75.19
2019-03-19T02:28:08.577Z,75.37
2019-03-19T02:30:39.113Z,75.56
2019-03-19T02:33:09.631Z,75.54
2019-03-19T02:35:39.873Z,75.60
2019-03-19T02:38:11.320Z,75.74
2019-03-19T02:40:42.755Z,75.63
2019-03-19T02:43:13.308Z,75.95
2019-03-19T02:45:43.818Z,75.83
2019-03-19T02:48:15.283Z,75.84
2019-03-19T02:50:45.806Z,76.16
2019-03-19T02:53:16.346Z,76.21
2019-03-19T02:55:47.791Z,76.40
2019-03-19T02:58:19.244Z,76.34
2019-03-19T03:00:50.684Z,76.31
2019-03-19T03:03:22.155Z,76.53
2019-03-19T03:05:53.583Z,76.64
2019-03-19T03:08:23.860Z,77.16
2019-03-19T03:10:55.253Z,77.19
2019-03-19T03:13:26.726Z,77.23
2019-03-19T03:15:57.234Z,76.96
2019-03-19T03:18:28.710Z,77.01
2019-03-19T03:20:59.223Z,76.88
2019-03-19T03:23:29.768Z,76.71
2019-03-19T03:26:00.280Z,76.66
2019-03-19T03:28:33.277Z,76.60
2019-03-19T03:31:03.821Z,76.47
2019-03-19T03:33:35.259Z,76.17
2019-03-19T03:36:05.783Z,76.12
2019-03-19T03:38:37.239Z,76.25
2019-03-19T03:41:07.750Z,76.12
2019-03-19T03:43:38.297Z,75.87
2019-03-19T03:46:11.277Z,75.90
2019-03-19T03:48:41.800Z,75.95
2019-03-19T03:51:12.335Z,75.91
2019-03-19T03:53:42.860Z,76.16
2019-03-19T03:56:13.390Z,75.82
2019-03-19T03:58:43.634Z,75.73
2019-03-19T04:01:15.065Z,75.49
2019-03-19T04:03:46.577Z,75.71
2019-03-19T04:06:17.970Z,75.62
2019-03-19T04:08:48.293Z,75.55
2019-03-19T04:11:18.727Z,75.48
2019-03-19T04:13:49.258Z,75.34
2019-03-19T04:16:19.778Z,75.15
2019-03-19T04:18:50.306Z,75.17
2019-03-19T04:21:21.775Z,75.05
2019-03-19T04:23:52.283Z,74.91
2019-03-19T04:26:22.545Z,74.86
2019-03-19T04:28:53.963Z,74.79
2019-03-19T04:31:25.425Z,74.71
2019-03-19T04:33:56.862Z,74.65
2019-03-19T04:36:27.405Z,74.76
2019-03-19T04:38:59.155Z,74.62
2019-03-19T04:41:29.706Z,74.75
2019-03-19T04:44:01.139Z,74.79
2019-03-19T04:46:31.679Z,74.64
2019-03-19T04:49:03.419Z,74.84
2019-03-19T04:51:33.961Z,74.80
2019-03-19T04:54:04.493Z,74.93
2019-03-19T04:56:37.177Z,75.00
2019-03-19T04:59:07.692Z,75.06
2019-03-19T05:01:38.239Z,75.09
2019-03-19T05:04:10.900Z,75.11
2019-03-19T05:06:42.392Z,74.98
2019-03-19T05:09:12.883Z,74.58
2019-03-19T05:11:43.438Z,74.55
2019-03-19T05:14:14.866Z,74.47
2019-03-19T05:16:47.254Z,74.74
2019-03-19T05:19:18.689Z,74.77
2019-03-19T05:21:50.170Z,74.40
2019-03-19T05:24:20.698Z,74.13
2019-03-19T05:26:51.200Z,74.08
2019-03-19T05:29:23.573Z,74.15
2019-03-19T05:31:54.106Z,74.37
2019-03-19T05:34:24.648Z,74.25
2019-03-19T05:36:55.161Z,73.92
2019-03-19T05:39:25.694Z,74.27
2019-03-19T05:41:57.141Z,74.06
2019-03-19T05:44:27.672Z,73.85
2019-03-19T05:47:00.206Z,73.88
2019-03-19T05:49:31.820Z,73.91
2019-03-19T05:52:02.327Z,73.50
2019-03-19T05:54:32.866Z,73.70
2019-03-19T05:57:04.319Z,73.51
2019-03-19T05:59:34.843Z,73.47
2019-03-19T06:02:05.378Z,73.23
2019-03-19T06:04:35.920Z,73.59
2019-03-19T06:07:06.457Z,73.14
2019-03-19T06:09:39.526Z,72.98
2019-03-19T06:12:10.883Z,72.80
2019-03-19T06:14:41.400Z,72.93
2019-03-19T06:17:11.945Z,72.92
2019-03-19T06:19:42.476Z,72.77
2019-03-19T06:22:13.091Z,72.45
2019-03-19T06:24:43.827Z,72.39
2019-03-19T06:27:15.299Z,71.98
2019-03-19T06:29:45.810Z,72.22
2019-03-19T06:32:16.345Z,71.83
2019-03-19T06:34:46.878Z,71.79
2019-03-19T06:37:17.428Z,71.88
2019-03-19T06:39:47.928Z,71.67
2019-03-19T06:42:18.462Z,71.57
2019-03-19T06:44:48.994Z,71.93
2019-03-19T06:47:19.518Z,71.57
2019-03-19T06:49:50.044Z,71.47
2019-03-19T06:52:20.574Z,71.43
2019-03-19T06:54:51.106Z,71.48
2019-03-19T06:57:21.635Z,71.34
2019-03-19T06:59:53.087Z,71.43
2019-03-19T07:02:23.614Z,71.31
2019-03-19T07:04:54.140Z,71.62
2019-03-19T07:07:25.595Z,71.50
2019-03-19T07:09:56.131Z,70.70
2019-03-19T07:12:26.660Z,70.02
2019-03-19T07:14:57.203Z,70.36
2019-03-19T07:17:32.171Z,69.35
2019-03-19T07:20:08.925Z,68.87
2019-03-19T07:22:43.095Z,68.15
2019-03-19T07:25:13.445Z,67.89
2019-03-19T07:27:44.891Z,67.45
2019-03-19T07:30:20.112Z,65.92
2019-03-19T07:32:50.572Z,66.05
2019-03-19T07:35:21.104Z,66.47
2019-03-19T07:37:52.869Z,66.05
2019-03-19T07:40:23.414Z,65.88
2019-03-19T07:42:53.918Z,66.86
2019-03-19T07:45:26.111Z,66.84
2019-03-19T07:47:56.557Z,67.24
2019-03-19T07:50:27.029Z,66.61
2019-03-19T07:52:57.612Z,66.78
2019-03-19T07:55:28.090Z,66.07
2019-03-19T07:57:58.641Z,66.58
2019-03-19T08:00:29.192Z,66.34
2019-03-19T08:02:59.705Z,65.76
2019-03-19T08:05:33.409Z,65.52
2019-03-19T08:08:03.877Z,65.35
2019-03-19T08:10:35.920Z,64.98
2019-03-19T08:13:06.291Z,65.82
2019-03-19T08:15:36.656Z,66.04
2019-03-19T08:18:08.428Z,65.67
2019-03-19T08:20:40.159Z,65.37
2019-03-19T08:23:10.725Z,65.27
2019-03-19T08:25:42.752Z,65.58
2019-03-19T08:28:13.303Z,65.60
2019-03-19T08:30:43.815Z,65.71
2019-03-19T08:33:14.377Z,66.04
2019-03-19T08:35:46.742Z,65.87
2019-03-19T08:38:17.295Z,66.10
2019-03-19T08:40:50.977Z,66.11
2019-03-19T08:43:21.172Z,66.66
2019-03-19T08:45:52.525Z,66.37
2019-03-19T08:48:23.056Z,65.79
2019-03-19T08:50:53.602Z,66.04
2019-03-19T08:53:24.097Z,65.87
2019-03-19T08:55:54.957Z,66.21
2019-03-19T08:58:25.522Z,66.38
2019-03-19T09:00:57.236Z,66.27
2019-03-19T09:03:27.766Z,66.06
2019-03-19T09:05:58.300Z,66.52
2019-03-19T09:08:28.844Z,65.93
2019-03-19T09:11:00.276Z,66.56
2019-03-19T09:13:30.826Z,66.93
2019-03-19T09:16:02.951Z,66.40
2019-03-19T09:18:34.954Z,66.19
2019-03-19T09:21:05.463Z,66.51
2019-03-19T09:23:36.918Z,66.49
2019-03-19T09:26:08.369Z,66.27
2019-03-19T09:28:40.529Z,65.51
2019-03-19T09:31:10.983Z,65.02
2019-03-19T09:33:41.521Z,65.45
2019-03-19T09:36:13.287Z,65.54
2019-03-19T09:38:43.778Z,65.08
2019-03-19T09:41:14.298Z,64.80
2019-03-19T09:43:44.871Z,64.83
2019-03-19T09:46:15.354Z,64.64
2019-03-19T09:48:47.697Z,63.55
2019-03-19T09:51:17.959Z,63.15
2019-03-19T09:53:48.498Z,62.22
2019-03-19T09:56:19.979Z,62.05
2019-03-19T09:58:50.528Z,62.04
2019-03-19T10:01:21.024Z,61.42
2019-03-19T10:03:51.626Z,61.55
2019-03-19T10:06:22.081Z,60.93
2019-03-19T10:08:52.626Z,60.20
2019-03-19T10:11:24.352Z,60.57
2019-03-19T10:13:54.920Z,59.75
2019-03-19T10:16:25.267Z,60.44
2019-03-19T10:18:55.647Z,59.56
2019-03-19T10:21:26.178Z,59.43
2019-03-19T10:23:56.734Z,58.27
2019-03-19T10:26:29.055Z,58.40
2019-03-19T10:28:59.613Z,58.55
2019-03-19T10:31:30.141Z,58.04
2019-03-19T10:34:00.691Z,58.11
2019-03-19T10:36:33.349Z,56.85
2019-03-19T10:39:06.187Z,56.04
2019-03-19T10:41:36.533Z,56.16
2019-03-19T10:44:07.063Z,54.59
2019-03-19T10:46:39.583Z,55.41
2019-03-19T10:49:10.884Z,54.77
2019-03-19T10:51:43.261Z,54.42
2019-03-19T10:54:13.787Z,54.87
2019-03-19T10:56:45.236Z,54.62
2019-03-19T10:59:21.111Z,55.42
2019-03-19T11:01:54.595Z,55.46
2019-03-19T11:04:26.038Z,55.33
2019-03-19T11:06:56.575Z,55.19
2019-03-19T11:09:27.106Z,54.32
2019-03-19T11:11:57.657Z,53.90
2019-03-19T11:14:28.175Z,55.17
2019-03-19T11:16:58.516Z,55.57
2019-03-19T11:19:28.928Z,54.76
2019-03-19T11:21:59.466Z,55.60
2019-03-19T11:24:30.030Z,56.05
2019-03-19T11:27:00.578Z,56.33
2019-03-19T11:29:33.709Z,56.99
2019-03-19T11:32:05.599Z,57.11
2019-03-19T11:34:38.584Z,56.98
2019-03-19T11:37:09.088Z,55.73
2019-03-19T11:39:39.617Z,55.78
2019-03-19T11:42:11.163Z,55.10
2019-03-19T11:44:42.894Z,55.65
2019-03-19T11:47:14.588Z,55.83
2019-03-19T11:49:46.051Z,55.98
2019-03-19T11:52:16.565Z,55.27
2019-03-19T11:54:47.106Z,55.75
2019-03-19T11:57:17.655Z,55.76
2019-03-19T11:59:48.150Z,55.74
2019-03-19T12:02:25.803Z,55.58
2019-03-19T12:04:50.747Z,55.18
2019-03-19T12:07:22.213Z,55.25
2019-03-19T12:09:52.735Z,53.96
2019-03-19T12:12:23.264Z,53.62
2019-03-19T12:14:54.709Z,52.10
2019-03-19T12:17:25.050Z,50.58
2019-03-19T12:19:55.462Z,50.22
2019-03-19T12:22:26.007Z,50.23
2019-03-19T12:24:57.439Z,49.23
2019-03-19T12:27:28.902Z,49.28
2019-03-19T12:29:59.424Z,47.11
2019-03-19T12:32:29.950Z,47.96
2019-03-19T12:35:01.728Z,46.96
2019-03-19T12:37:35.407Z,48.13
2019-03-19T12:40:13.059Z,47.78
2019-03-19T12:42:46.282Z,48.23
2019-03-19T12:45:18.075Z,48.48
2019-03-19T12:47:48.806Z,49.12
2019-03-19T12:50:20.685Z,46.86
2019-03-19T12:52:52.335Z,48.12
2019-03-19T12:55:22.871Z,48.46
2019-03-19T12:57:53.388Z,48.34
2019-03-19T13:00:34.161Z,48.29
2019-03-19T13:03:02.106Z,49.02
2019-03-19T13:05:32.652Z,49.41
2019-03-19T13:08:03.187Z,47.93
2019-03-19T13:10:33.700Z,47.53
2019-03-19T13:13:04.713Z,47.88
2019-03-19T13:15:36.599Z,48.05
2019-03-19T13:18:07.182Z,48.11
2019-03-19T13:20:37.657Z,47.57
2019-03-19T13:23:09.118Z,47.19
2019-03-19T13:25:40.560Z,47.33
2019-03-19T13:28:12.021Z,47.57
2019-03-19T13:30:45.254Z,48.86
2019-03-19T13:33:14.628Z,49.42
2019-03-19T13:35:45.149Z,50.31
2019-03-19T13:38:16.600Z,50.50
2019-03-19T13:40:47.116Z,51.45
2019-03-19T13:43:17.649Z,50.69
2019-03-19T13:45:49.097Z,50.90
2019-03-19T13:48:19.641Z,51.59
2019-03-19T13:50:50.157Z,52.54
2019-03-19T13:53:20.710Z,53.11
2019-03-19T13:55:51.683Z,54.02
2019-03-19T13:58:22.059Z,53.76
2019-03-19T14:00:55.784Z,53.36
2019-03-19T14:03:24.651Z,52.81
2019-03-19T14:05:55.189Z,52.29
2019-03-19T14:08:25.706Z,52.85
2019-03-19T14:10:57.466Z,53.09
2019-03-19T14:13:28.001Z,54.22
2019-03-19T14:15:58.533Z,54.07
2019-03-19T14:18:29.053Z,52.83
2019-03-19T14:20:59.578Z,53.77
2019-03-19T14:23:30.120Z,53.64
2019-03-19T14:26:00.646Z,53.92
2019-03-19T14:28:31.187Z,53.50
2019-03-19T14:31:08.629Z,54.10
2019-03-19T14:33:35.036Z,53.89
2019-03-19T14:36:05.695Z,53.92
2019-03-19T14:38:46.516Z,53.23
2019-03-19T14:41:08.578Z,52.43
2019-03-19T14:43:40.194Z,52.83
2019-03-19T14:46:10.724Z,51.48
2019-03-19T14:48:41.260Z,51.46
2019-03-19T14:51:11.785Z,50.99
2019-03-19T14:53:42.323Z,51.49
2019-03-19T14:56:12.847Z,51.35
2019-03-19T14:58:44.351Z,51.52
2019-03-19T15:01:19.649Z,52.15
2019-03-19T15:03:51.637Z,53.28
2019-03-19T15:06:23.255Z,52.79
2019-03-19T15:09:05.087Z,52.86
2019-03-19T15:11:39.270Z,52.42
2019-03-19T15:14:18.089Z,53.13
2019-03-19T15:17:05.053Z,52.30
2019-03-19T15:19:33.070Z,53.13
2019-03-19T15:22:03.615Z,52.87
2019-03-19T15:24:35.375Z,51.52
2019-03-19T15:27:11.144Z,51.40
2019-03-19T15:29:48.402Z,51.68
2019-03-19T15:32:19.852Z,51.71
2019-03-19T15:34:50.381Z,51.95
2019-03-19T15:37:20.914Z,52.53
2019-03-19T15:39:51.439Z,52.05
2019-03-19T15:42:24.280Z,52.14
2019-03-19T15:44:56.231Z,50.85
2019-03-19T15:47:26.909Z,51.94
2019-03-19T15:50:02.515Z,53.46
2019-03-19T15:52:33.927Z,54.15
2019-03-19T15:55:09.615Z,54.74
2019-03-19T15:57:41.965Z,55.72
2019-03-19T16:00:19.104Z,56.13
2019-03-19T16:02:54.257Z,56.46
2019-03-19T16:05:27.346Z,56.85
2019-03-19T16:07:59.234Z,56.45
2019-03-19T16:10:29.764Z,55.85
2019-03-19T16:13:04.480Z,56.11
2019-03-19T16:15:35.332Z,56.33
2019-03-19T16:18:05.689Z,56.73
2019-03-19T16:20:37.683Z,57.11
2019-03-19T16:23:14.144Z,57.76
2019-03-19T16:25:47.619Z,58.31
2019-03-19T16:28:21.917Z,59.03
2019-03-19T16:30:54.272Z,59.70
2019-03-19T16:33:29.130Z,59.89
2019-03-19T16:36:01.284Z,60.45
2019-03-19T16:38:33.549Z,60.38
2019-03-19T16:41:05.408Z,60.39
2019-03-19T16:43:36.184Z,60.70
2019-03-19T16:46:06.779Z,60.38
2019-03-19T16:48:38.785Z,60.55
2019-03-19T16:51:09.282Z,60.51
2019-03-19T16:53:39.948Z,60.91
2019-03-19T16:56:10.320Z,60.48
2019-03-19T16:58:44.120Z,61.13
2019-03-19T17:01:22.141Z,61.21
2019-03-19T17:04:07.111Z,61.16
2019-03-19T17:06:46.796Z,61.62
2019-03-19T17:09:24.173Z,61.93
2019-03-19T17:12:01.983Z,62.30
2019-03-19T17:14:41.412Z,62.29
2019-03-19T17:17:15.466Z,62.46
2019-03-19T17:19:50.084Z,62.55
2019-03-19T17:22:20.479Z,62.90
2019-03-19T17:24:51.251Z,63.60
2019-03-19T17:27:23.475Z,63.63
2019-03-19T17:29:53.920Z,63.97
2019-03-19T17:32:26.012Z,64.45
2019-03-19T17:34:56.469Z,64.92
2019-03-19T17:37:30.072Z,64.94
2019-03-19T17:40:01.822Z,64.75
2019-03-19T17:42:42.083Z,65.14
2019-03-19T17:45:15.997Z,65.31
2019-03-19T17:47:49.806Z,64.91
2019-03-19T17:50:40.279Z,64.80
2019-03-19T17:53:17.489Z,64.19
2019-03-19T17:55:48.015Z,64.23
2019-03-19T17:58:18.555Z,64.60
2019-03-19T18:00:50.717Z,64.44
2019-03-19T18:03:22.569Z,64.54
2019-03-19T18:05:52.982Z,65.47
2019-03-19T18:08:24.686Z,65.37
2019-03-19T18:10:55.240Z,66.38
2019-03-19T18:13:27.374Z,67.42
2019-03-19T18:15:59.057Z,67.44
2019-03-19T18:18:30.787Z,67.74
2019-03-19T18:21:02.964Z,67.68
2019-03-19T18:23:33.390Z,68.49
2019-03-19T18:26:03.907Z,67.67
2019-03-19T18:28:34.477Z,67.58
2019-03-19T18:31:05.005Z,68.09
2019-03-19T18:33:35.888Z,68.87
2019-03-19T18:36:07.264Z,68.69
2019-03-19T18:38:40.544Z,68.78
2019-03-19T18:41:11.099Z,68.41
2019-03-19T18:43:45.507Z,68.79
2019-03-19T18:46:16.161Z,68.91
2019-03-19T18:48:46.724Z,68.85
2019-03-19T18:51:17.204Z,68.76
2019-03-19T18:53:49.832Z,68.71
2019-03-19T18:56:22.570Z,69.75
2019-03-19T18:58:54.532Z,69.41
2019-03-19T19:01:27.726Z,69.27
2019-03-19T19:03:59.983Z,69.29
2019-03-19T19:06:31.739Z,69.81
2019-03-19T19:09:05.131Z,70.01
2019-03-19T19:11:35.564Z,70.16
2019-03-19T19:14:06.698Z,70.58
2019-03-19T19:16:39.706Z,71.49
2019-03-19T19:19:12.342Z,72.77
2019-03-19T19:21:42.901Z,72.67
2019-03-19T19:24:30.113Z,72.86
2019-03-19T19:27:03.637Z,73.35
2019-03-19T19:29:36.153Z,72.93
2019-03-19T19:32:06.711Z,72.29
2019-03-19T19:34:37.067Z,72.40
2019-03-19T19:37:07.592Z,72.13
2019-03-19T19:39:40.269Z,72.14
2019-03-19T19:42:12.398Z,72.19
2019-03-19T19:44:42.864Z,72.72
2019-03-19T19:47:13.495Z,72.94
2019-03-19T19:49:45.149Z,72.32
2019-03-19T19:52:19.430Z,73.50
2019-03-19T19:54:50.341Z,72.47
2019-03-19T19:57:23.926Z,72.00
2019-03-19T19:59:57.703Z,72.51
2019-03-19T20:02:28.297Z,72.78
2019-03-19T20:05:02.879Z,73.50
2019-03-19T20:07:30.974Z,73.09
2019-03-19T20:10:01.365Z,73.05
2019-03-19T20:12:35.387Z,73.20
2019-03-19T20:15:08.632Z,74.17
2019-03-19T20:17:44.034Z,73.50
2019-03-19T20:20:30.792Z,73.79
2019-03-19T20:23:02.914Z,74.07
2019-03-19T20:25:33.447Z,74.90
2019-03-19T20:28:07.035Z,75.00
2019-03-19T20:30:37.582Z,76.68
2019-03-19T20:33:08.082Z,77.26
2019-03-19T20:35:38.615Z,76.05
2019-03-19T20:38:10.683Z,75.96
2019-03-19T20:40:41.224Z,76.06
2019-03-19T20:43:11.745Z,76.11
2019-03-19T20:45:43.203Z,77.51
2019-03-19T20:48:13.749Z,77.15
2019-03-19T20:50:44.253Z,76.90
2019-03-19T20:53:16.312Z,76.90
2019-03-19T20:55:46.900Z,76.06
2019-03-19T20:58:17.373Z,76.73
2019-03-19T21:00:48.982Z,77.25
2019-03-19T21:03:21.920Z,76.83
2019-03-19T21:05:54.343Z,77.47
2019-03-19T21:08:38.157Z,77.03
2019-03-19T21:11:12.891Z,76.64
2019-03-19T21:13:46.339Z,76.04
2019-03-19T21:16:16.884Z,76.44
2019-03-19T21:18:47.439Z,76.44
2019-03-19T21:21:19.539Z,77.04
2019-03-19T21:23:50.685Z,75.79
2019-03-19T21:26:21.182Z,75.79
2019-03-19T21:28:53.978Z,75.69
2019-03-19T21:31:26.638Z,75.69
2019-03-19T21:34:04.051Z,75.82
2019-03-19T21:36:34.688Z,76.25
2019-03-19T21:39:07.411Z,76.64
2019-03-19T21:41:42.060Z,78.75
2019-03-19T21:44:15.613Z,79.34
2019-03-19T21:46:48.206Z,79.89
2019-03-19T21:49:18.660Z,79.89
2019-03-19T21:51:50.618Z,80.66
2019-03-19T21:54:22.061Z,80.53
2019-03-19T21:56:56.848Z,80.80
2019-03-19T21:59:36.657Z,80.80
2019-03-19T22:02:16.047Z,80.11
2019-03-19T22:04:46.921Z,78.82
2019-03-19T22:07:22.623Z,78.29
2019-03-19T22:09:57.768Z,78.25
2019-03-19T22:12:31.676Z,77.74
2019-03-19T22:15:16.426Z,77.52
2019-03-19T22:17:47.147Z,77.27
2019-03-19T22:20:22.546Z,77.27
2019-03-19T22:22:53.591Z,77.29
2019-03-19T22:25:25.357Z,77.37
2019-03-19T22:27:55.697Z,77.22
2019-03-19T22:30:26.535Z,77.49
2019-03-19T22:32:57.261Z,77.53
2019-03-19T22:35:29.412Z,80.57
2019-03-19T22:37:59.887Z,80.15
2019-03-19T22:40:31.358Z,80.84
2019-03-19T22:43:01.868Z,81.37
2019-03-19T22:45:32.268Z,81.37
2019-03-19T22:48:02.804Z,81.66
2019-03-19T22:50:33.175Z,81.66
2019-03-19T22:53:03.557Z,81.45
2019-03-19T22:55:33.925Z,81.45
2019-03-19T22:58:05.637Z,81.71
2019-03-19T23:00:37.826Z,81.26
2019-03-19T23:03:10.264Z,80.35
2019-03-19T23:05:40.654Z,79.31
2019-03-19T23:08:11.018Z,79.78
2019-03-19T23:10:41.419Z,79.45
2019-03-19T23:13:12.130Z,79.45
2019-03-19T23:15:42.488Z,79.31
2019-03-19T23:18:13.023Z,79.40
2019-03-19T23:20:43.560Z,79.73
2019-03-19T23:23:13.936Z,79.52
2019-03-19T23:25:45.586Z,79.52
2019-03-19T23:28:15.989Z,79.79
2019-03-19T23:30:46.337Z,79.99
2019-03-19T23:33:16.672Z,79.64
2019-03-19T23:35:47.010Z,78.81
2019-03-19T23:38:17.600Z,78.62
2019-03-19T23:40:47.934Z,78.41
2019-03-19T23:43:19.634Z,78.10
2019-03-19T23:45:49.966Z,78.13
2019-03-19T23:48:20.293Z,78.30
2019-03-19T23:50:50.727Z,78.25
2019-03-19T23:53:21.065Z,77.93
2019-03-19T23:55:51.807Z,77.83
2019-03-19T23:58:22.514Z,78.17
